Create Custom Reports and Graphics: Custom Report

Stanford Met Tower

Current Conditions

10/19/19 2:30 AM (-07:00)
Updated Every 15 Minutes
Temp 45.4 °F   2.3
RH 83 %   1
Dew Pt 40.5 °F   2.7
Wind Dir SSW | 201 °
Wind Spd 6.2 mph   0.9
Wind Gust 10.8 mph   2.1
Solar Rad 0 W/m2   0
Daily Min Temp 44.0 °F   2.8
Daily Max Temp 47.3 °F   4.0
Daily Max Wind 12.4 mph   0.2
Daily Rain 0.00 In
Min Temp Yest 44.3 °F
Max Temp Yest 69.1 °F
Max Wind Yest 33.4 mph
Rain Yest 0.00 In
Seasonal Rainfall 0.06 In

Last 48 Hours

Stanford Met Tower

Hourly Data | America/Los_Angeles
as of 10/19/19 2:37 AM PDT
Date & Time Temp (°F) Temp Inversion (°F) RH (%) Dew Pt (°F) Wind Dir (°) Wind Spd (mph) Wind Gust (mph) Latest Rain (In) ETo Hr (in) ETo 2pm (In) Daily Rain (In) Daily Min Temp (°F) Daily Max Temp (°F)
10/19/19 - 0200 45.7 1.7 82 40.6 SSW | 206 6.2 11.9 0.00 0.000 0.09 0.00 44.0 47.3
10/19/19 - 0100 45.9 2.1 86 42.2 S | 187 4.6 11.0 0.00 0.000 0.09 0.00 44.3 69.1
10/19/19 - 0000 46.9 3.0 86 42.9 SSW | 192 5.1 11.6 0.00 0.000 0.09 0.00 44.3 69.1
10/18/19 - 2300 48.7 1.8 83 43.9 SSW | 204 6.7 12.7 0.00 0.000 0.09 0.00 44.3 69.1
10/18/19 - 2200 50.8 1.9 78 44.1 SW | 219 5.8 11.8 0.00 0.000 0.09 0.00 44.3 69.1
10/18/19 - 2100 53.5 2.6 72 44.8 SW | 228 5.2 12.7 0.00 0.000 0.09 0.00 44.3 69.1
10/18/19 - 2000 54.7 2.0 72 46.0 W | 262 7.4 18.9 0.00 0.000 0.09 0.00 44.3 69.1
10/18/19 - 1900 58.9 1.1 64 46.6 W | 280 10.7 20.0 0.00 0.000 0.09 0.00 44.3 69.1
10/18/19 - 1800 61.6 0.2 57 46.2 W | 280 13.3 27.3 0.00 0.001 0.09 0.00 44.3 69.1
10/18/19 - 1700 63.6 -1.4 53 46.2 WNW | 293 16.7 33.4 0.00 0.005 0.09 0.00 44.3 69.1
10/18/19 - 1600 64.3 -2.8 54 47.2 NW | 304 16.2 33.2 0.00 0.010 0.09 0.00 44.3 69.1
10/18/19 - 1500 66.0 -3.9 55 49.4 NW | 316 15.4 28.3 0.00 0.012 0.09 0.00 44.3 69.1
10/18/19 - 1400 68.2 -4.5 55 51.6 NW | 305 14.2 27.6 0.00 0.013 0.08 0.00 44.3 69.1
10/18/19 - 1300 67.8 -4.5 56 51.7 NW | 315 11.5 26.1 0.00 0.016 0.08 0.00 44.3 69.0
10/18/19 - 1200 67.2 -5.4 66 55.4 NNE | 14 5.5 13.4 0.00 0.014 0.08 0.00 44.3 67.8
10/18/19 - 1100 63.9 -3.5 69 53.6 NNE | 24 3.1 9.8 0.00 0.009 0.08 0.00 44.3 64.8
10/18/19 - 1000 61.5 -1.8 69 51.1 ESE | 106 1.8 5.7 0.00 0.005 0.08 0.00 44.3 62.1
10/18/19 - 0900 56.6 1.3 72 47.8 SSE | 153 1.9 6.8 0.00 0.001 0.08 0.00 44.3 56.9
10/18/19 - 0800 47.1 6.8 90 44.2 SSW | 193 6.1 10.8 0.00 0.000 0.08 0.00 44.3 51.3
10/18/19 - 0700 44.5 5.5 92 42.2 SW | 226 7.0 13.3 0.00 0.000 0.08 0.00 44.3 51.3
10/18/19 - 0600 45.0 5.0 91 42.5 SSW | 213 6.1 11.7 0.00 0.000 0.08 0.00 44.4 51.3
10/18/19 - 0500 45.7 2.8 88 42.3 SW | 221 6.5 11.7 0.00 0.000 0.08 0.00 44.4 51.3
10/18/19 - 0400 46.2 2.9 85 42.1 SW | 233 7.4 11.4 0.00 0.000 0.08 0.00 46.2 51.3
10/18/19 - 0300 48.1 1.6 82 43.0 SW | 218 5.9 12.2 0.00 0.000 0.08 0.00 46.4 51.3
10/18/19 - 0200 48.6 3.2 83 43.7 SW | 216 6.0 11.7 0.00 0.000 0.08 0.00 47.1 51.3
10/18/19 - 0100 51.2 2.7 81 45.5 WSW | 252 6.2 11.7 0.00 0.000 0.08 0.00 51.2 68.2
10/18/19 - 0000 56.3 1.7 72 47.5 WNW | 298 8.5 21.1 0.00 0.000 0.08 0.00 53.0 68.2
10/17/19 - 2300 57.6 2.3 69 47.4 WNW | 285 6.7 15.6 0.00 0.000 0.08 0.00 53.0 68.2
10/17/19 - 2200 56.8 1.8 70 47.3 WNW | 282 8.0 20.0 0.00 0.000 0.08 0.00 53.0 68.2
10/17/19 - 2100 57.6 1.3 68 47.2 WNW | 284 11.3 25.1 0.00 0.000 0.08 0.00 53.0 68.2
10/17/19 - 2000 58.7 1.0 69 48.4 WNW | 300 11.3 27.7 0.00 0.000 0.08 0.00 53.0 68.2
10/17/19 - 1900 59.0 1.1 68 48.4 WNW | 299 10.1 24.6 0.00 0.000 0.08 0.00 53.0 68.2
10/17/19 - 1800 61.0 0.1 62 48.2 WNW | 299 17.9 37.9 0.00 0.001 0.08 0.00 53.0 68.2
10/17/19 - 1700 62.6 -1.1 58 47.5 WNW | 292 21.0 42.8 0.00 0.006 0.08 0.00 53.0 68.2
10/17/19 - 1600 65.0 -3.4 52 47.0 NW | 312 19.6 39.5 0.00 0.010 0.08 0.00 53.0 68.2
10/17/19 - 1500 66.4 -3.2 44 43.6 WNW | 295 18.9 41.2 0.00 0.013 0.08 0.00 53.0 68.2
10/17/19 - 1400 67.3 -5.2 40 42.0 WNW | 297 17.1 35.6 0.00 0.015 0.07 0.00 53.0 68.2
10/17/19 - 1300 66.6 -4.9 41 42.1 WNW | 300 15.4 31.0 0.00 0.015 0.07 0.00 53.0 67.6
10/17/19 - 1200 65.9 -3.5 37 39.2 NW | 304 15.7 34.2 0.00 0.014 0.07 0.00 53.0 67.1
10/17/19 - 1100 63.9 -2.9 49 44.4 WNW | 298 14.7 33.5 0.00 0.011 0.07 0.00 53.0 64.4
10/17/19 - 1000 62.9 -0.5 51 44.8 NW | 307 12.2 24.8 0.00 0.006 0.07 0.00 53.0 63.1
10/17/19 - 0900 59.5 1.7 61 46.1 W | 281 4.5 19.0 0.00 0.001 0.07 0.00 53.0 59.8
10/17/19 - 0800 56.6 2.4 67 45.8 W | 267 7.2 15.6 0.00 0.000 0.07 0.00 53.0 59.8
10/17/19 - 0700 56.6 1.9 73 48.2 W | 271 10.7 22.0 0.00 0.000 0.07 0.00 53.0 59.8
10/17/19 - 0600 57.7 1.3 78 51.0 WNW | 288 9.3 24.1 0.00 0.000 0.07 0.00 53.0 59.8
10/17/19 - 0500 58.1 0.9 88 54.5 WSW | 248 4.6 13.3 0.00 0.000 0.07 0.00 53.0 59.8
10/17/19 - 0400 57.2 1.6 86 53.0 SW | 222 5.1 10.1 0.00 0.000 0.07 0.00 53.0 59.8
10/17/19 - 0300 54.3 2.4 88 50.9 WNW | 292 3.7 12.0 0.00 0.000 0.07 0.00 54.3 59.8
10/17/19 - 0200 59.3 0.7 76 51.6 WSW | 247 3.9 7.9 0.00 0.000 0.07 0.00 58.1 59.8
Max 68.2 6.8 92 55.4 - 21.0 42.8 0.00 0.016 0.09 0.00 58.1 69.1
Avg 57.3 0.4 69 46.6 - 9.4 20.3 0.00 0.004 0.08 - - -
Min 44.5 -5.4 37 39.2 - 1.8 5.7 0.00 0.000 0.07 0.00 44.0 47.3
Total - - - - - - - 0.00 0.178 - - - -
Calm: 0.0%
Calm: 0.0%